sensor_id;sensor_type;location;lat;lon;timestamp;pressure;altitude;pressure_sealevel;temperature;humidity
46111;BME280;31849;55.992;37.252;2023-02-04T00:01:29;98538.09;;;1.65;63.50
46111;BME280;31849;55.992;37.252;2023-02-04T00:06:32;98538.03;;;1.62;63.42
46111;BME280;31849;55.992;37.252;2023-02-04T00:11:37;98508.03;;;1.54;63.47
46111;BME280;31849;55.992;37.252;2023-02-04T00:16:41;98544.88;;;1.61;63.30
46111;BME280;31849;55.992;37.252;2023-02-04T00:21:44;98539.00;;;1.67;63.23
46111;BME280;31849;55.992;37.252;2023-02-04T00:26:49;98550.13;;;1.69;62.99
46111;BME280;31849;55.992;37.252;2023-02-04T00:31:52;98552.59;;;1.64;62.97
46111;BME280;31849;55.992;37.252;2023-02-04T00:36:56;98558.81;;;1.75;62.82
46111;BME280;31849;55.992;37.252;2023-02-04T00:42:00;98565.66;;;1.78;62.97
46111;BME280;31849;55.992;37.252;2023-02-04T00:47:04;98560.53;;;1.78;62.87
46111;BME280;31849;55.992;37.252;2023-02-04T00:52:07;98568.34;;;1.38;64.09
46111;BME280;31849;55.992;37.252;2023-02-04T00:57:12;98569.22;;;1.39;63.96
46111;BME280;31849;55.992;37.252;2023-02-04T01:02:15;98577.88;;;1.44;63.12
46111;BME280;31849;55.992;37.252;2023-02-04T01:07:19;98576.75;;;1.31;63.82
46111;BME280;31849;55.992;37.252;2023-02-04T01:12:24;98575.13;;;1.36;63.52
46111;BME280;31849;55.992;37.252;2023-02-04T01:17:29;98579.19;;;1.25;63.97
46111;BME280;31849;55.992;37.252;2023-02-04T01:22:33;98585.94;;;1.23;63.94
46111;BME280;31849;55.992;37.252;2023-02-04T01:27:38;98590.56;;;1.39;63.93
46111;BME280;31849;55.992;37.252;2023-02-04T01:32:41;98586.88;;;1.68;62.62
46111;BME280;31849;55.992;37.252;2023-02-04T01:37:45;98586.59;;;1.55;63.29
46111;BME280;31849;55.992;37.252;2023-02-04T01:42:50;98607.28;;;1.65;62.92
46111;BME280;31849;55.992;37.252;2023-02-04T01:47:53;98614.19;;;1.69;63.51
46111;BME280;31849;55.992;37.252;2023-02-04T01:52:57;98618.31;;;1.61;63.61
46111;BME280;31849;55.992;37.252;2023-02-04T01:58:02;98621.13;;;1.73;63.16
46111;BME280;31849;55.992;37.252;2023-02-04T02:03:06;98616.97;;;1.80;62.86
46111;BME280;31849;55.992;37.252;2023-02-04T02:08:12;98625.75;;;1.92;62.75
46111;BME280;31849;55.992;37.252;2023-02-04T02:13:17;98636.38;;;2.13;62.28
46111;BME280;31849;55.992;37.252;2023-02-04T02:18:21;98634.38;;;1.96;62.18
46111;BME280;31849;55.992;37.252;2023-02-04T02:28:36;98649.84;;;2.01;62.35
46111;BME280;31849;55.992;37.252;2023-02-04T02:33:39;98647.41;;;2.07;62.47
46111;BME280;31849;55.992;37.252;2023-02-04T02:38:43;98652.34;;;1.98;62.24
46111;BME280;31849;55.992;37.252;2023-02-04T02:43:48;98656.69;;;2.02;61.96
46111;BME280;31849;55.992;37.252;2023-02-04T02:48:51;98668.47;;;1.92;61.74
46111;BME280;31849;55.992;37.252;2023-02-04T02:53:55;98664.09;;;1.86;61.87
46111;BME280;31849;55.992;37.252;2023-02-04T02:59:11;98671.63;;;1.77;62.08
46111;BME280;31849;55.992;37.252;2023-02-04T03:04:16;98672.03;;;1.56;62.12
46111;BME280;31849;55.992;37.252;2023-02-04T03:09:22;98678.66;;;1.46;61.95
46111;BME280;31849;55.992;37.252;2023-02-04T03:14:28;98686.78;;;1.27;62.44
46111;BME280;31849;55.992;37.252;2023-02-04T03:19:32;98686.75;;;1.25;62.54
46111;BME280;31849;55.992;37.252;2023-02-04T03:24:37;98689.28;;;1.23;63.07
46111;BME280;31849;55.992;37.252;2023-02-04T03:29:44;98688.97;;;1.11;63.09
46111;BME280;31849;55.992;37.252;2023-02-04T03:34:47;98690.53;;;1.04;63.41
46111;BME280;31849;55.992;37.252;2023-02-04T03:39:51;98695.03;;;1.15;62.82
46111;BME280;31849;55.992;37.252;2023-02-04T03:44:56;98696.84;;;1.19;62.69
46111;BME280;31849;55.992;37.252;2023-02-04T03:49:59;98692.63;;;1.21;62.41
46111;BME280;31849;55.992;37.252;2023-02-04T03:55:04;98694.09;;;1.11;62.93
46111;BME280;31849;55.992;37.252;2023-02-04T04:00:11;98704.06;;;0.99;62.70
46111;BME280;31849;55.992;37.252;2023-02-04T04:05:15;98715.69;;;0.86;62.77
46111;BME280;31849;55.992;37.252;2023-02-04T04:10:19;98711.34;;;0.82;63.07
46111;BME280;31849;55.992;37.252;2023-02-04T04:15:24;98732.69;;;0.82;62.93
46111;BME280;31849;55.992;37.252;2023-02-04T04:20:27;98732.97;;;0.60;62.81
46111;BME280;31849;55.992;37.252;2023-02-04T04:25:31;98738.16;;;0.63;62.39
46111;BME280;31849;55.992;37.252;2023-02-04T04:30:36;98736.56;;;0.68;62.99
46111;BME280;31849;55.992;37.252;2023-02-04T04:35:39;98745.09;;;0.67;62.74
46111;BME280;31849;55.992;37.252;2023-02-04T04:40:43;98757.56;;;0.55;62.95
46111;BME280;31849;55.992;37.252;2023-02-04T04:45:47;98741.94;;;0.44;62.94
46111;BME280;31849;55.992;37.252;2023-02-04T04:50:51;98765.16;;;0.51;62.87
46111;BME280;31849;55.992;37.252;2023-02-04T04:55:54;98771.22;;;0.55;63.31
46111;BME280;31849;55.992;37.252;2023-02-04T05:00:59;98761.03;;;0.57;62.93
46111;BME280;31849;55.992;37.252;2023-02-04T05:06:02;98775.84;;;0.68;62.48
46111;BME280;31849;55.992;37.252;2023-02-04T05:11:05;98773.50;;;0.46;63.11
46111;BME280;31849;55.992;37.252;2023-02-04T05:16:10;98790.25;;;0.33;63.07
46111;BME280;31849;55.992;37.252;2023-02-04T05:21:14;98790.47;;;0.12;63.54
46111;BME280;31849;55.992;37.252;2023-02-04T05:26:17;98799.72;;;0.07;63.16
46111;BME280;31849;55.992;37.252;2023-02-04T05:31:33;98810.81;;;0.07;63.46
46111;BME280;31849;55.992;37.252;2023-02-04T05:36:36;98819.72;;;-0.09;63.86
46111;BME280;31849;55.992;37.252;2023-02-04T05:41:39;98823.88;;;-0.12;63.91
46111;BME280;31849;55.992;37.252;2023-02-04T05:46:44;98834.97;;;-0.12;64.01
46111;BME280;31849;55.992;37.252;2023-02-04T05:51:48;98834.19;;;0.20;63.33
46111;BME280;31849;55.992;37.252;2023-02-04T05:56:51;98844.47;;;0.53;62.83
46111;BME280;31849;55.992;37.252;2023-02-04T06:01:56;98846.13;;;0.83;62.04
46111;BME280;31849;55.992;37.252;2023-02-04T06:06:59;98852.06;;;1.14;61.83
46111;BME280;31849;55.992;37.252;2023-02-04T06:12:04;98856.81;;;1.33;62.08
46111;BME280;31849;55.992;37.252;2023-02-04T06:17:09;98864.31;;;1.61;61.48
46111;BME280;31849;55.992;37.252;2023-02-04T06:22:12;98875.78;;;1.76;60.96
46111;BME280;31849;55.992;37.252;2023-02-04T06:27:16;98872.03;;;2.40;60.33
46111;BME280;31849;55.992;37.252;2023-02-04T06:32:25;98878.00;;;2.39;59.95
46111;BME280;31849;55.992;37.252;2023-02-04T06:37:29;98882.41;;;2.05;60.05
46111;BME280;31849;55.992;37.252;2023-02-04T06:42:32;98892.41;;;1.94;60.22
46111;BME280;31849;55.992;37.252;2023-02-04T06:47:37;98905.34;;;2.37;60.29
46111;BME280;31849;55.992;37.252;2023-02-04T06:52:41;98911.13;;;2.68;58.52
46111;BME280;31849;55.992;37.252;2023-02-04T06:57:44;98914.97;;;2.90;58.24
46111;BME280;31849;55.992;37.252;2023-02-04T07:02:49;98921.22;;;3.04;59.19
46111;BME280;31849;55.992;37.252;2023-02-04T07:07:53;98930.00;;;3.15;59.04
46111;BME280;31849;55.992;37.252;2023-02-04T07:12:57;98926.81;;;3.78;56.96
46111;BME280;31849;55.992;37.252;2023-02-04T07:18:02;98923.84;;;4.08;56.49
46111;BME280;31849;55.992;37.252;2023-02-04T07:23:06;98929.59;;;3.92;55.81
46111;BME280;31849;55.992;37.252;2023-02-04T07:28:09;98909.03;;;3.93;56.30
46111;BME280;31849;55.992;37.252;2023-02-04T07:33:14;98950.31;;;4.59;55.25
46111;BME280;31849;55.992;37.252;2023-02-04T07:38:18;98942.25;;;4.34;55.19
46111;BME280;31849;55.992;37.252;2023-02-04T07:43:21;98957.94;;;3.95;55.60
46111;BME280;31849;55.992;37.252;2023-02-04T07:48:26;98961.44;;;3.98;56.06
46111;BME280;31849;55.992;37.252;2023-02-04T07:53:29;98966.63;;;4.01;55.87
46111;BME280;31849;55.992;37.252;2023-02-04T07:58:33;98970.38;;;4.22;55.10
46111;BME280;31849;55.992;37.252;2023-02-04T08:03:38;98972.06;;;4.21;54.57
46111;BME280;31849;55.992;37.252;2023-02-04T08:08:42;98979.50;;;4.03;54.93
46111;BME280;31849;55.992;37.252;2023-02-04T08:13:46;98979.75;;;4.18;54.84
46111;BME280;31849;55.992;37.252;2023-02-04T08:18:51;98980.22;;;4.51;54.21
46111;BME280;31849;55.992;37.252;2023-02-04T08:23:54;98978.59;;;4.56;53.51
46111;BME280;31849;55.992;37.252;2023-02-04T08:28:57;98975.00;;;4.46;53.09
46111;BME280;31849;55.992;37.252;2023-02-04T08:34:03;98987.50;;;4.21;54.10
46111;BME280;31849;55.992;37.252;2023-02-04T08:39:07;98988.59;;;3.82;54.69
46111;BME280;31849;55.992;37.252;2023-02-04T08:44:10;98988.09;;;4.03;54.51
46111;BME280;31849;55.992;37.252;2023-02-04T08:49:15;99001.25;;;4.22;53.71
46111;BME280;31849;55.992;37.252;2023-02-04T08:54:19;99003.03;;;4.26;53.90
46111;BME280;31849;55.992;37.252;2023-02-04T08:59:22;99013.84;;;4.05;54.51
46111;BME280;31849;55.992;37.252;2023-02-04T09:04:29;99015.47;;;4.00;54.71
46111;BME280;31849;55.992;37.252;2023-02-04T09:09:32;99003.47;;;4.00;54.15
46111;BME280;31849;55.992;37.252;2023-02-04T09:14:36;99016.66;;;3.68;55.36
46111;BME280;31849;55.992;37.252;2023-02-04T09:19:41;99013.63;;;3.93;54.40
46111;BME280;31849;55.992;37.252;2023-02-04T09:24:44;99016.63;;;4.17;54.15
46111;BME280;31849;55.992;37.252;2023-02-04T09:29:48;99025.66;;;3.92;55.19
46111;BME280;31849;55.992;37.252;2023-02-04T09:34:53;99030.84;;;3.95;55.16
46111;BME280;31849;55.992;37.252;2023-02-04T09:39:56;99033.09;;;4.30;53.82
46111;BME280;31849;55.992;37.252;2023-02-04T09:44:59;99034.09;;;4.37;53.61
46111;BME280;31849;55.992;37.252;2023-02-04T09:50:08;99039.25;;;4.38;53.67
46111;BME280;31849;55.992;37.252;2023-02-04T09:55:18;99040.28;;;3.98;54.56
46111;BME280;31849;55.992;37.252;2023-02-04T10:00:23;99042.75;;;3.92;54.71
46111;BME280;31849;55.992;37.252;2023-02-04T10:05:30;99047.84;;;3.88;54.85
46111;BME280;31849;55.992;37.252;2023-02-04T10:10:34;99049.25;;;3.71;55.09
46111;BME280;31849;55.992;37.252;2023-02-04T10:15:37;99057.03;;;3.30;55.69
46111;BME280;31849;55.992;37.252;2023-02-04T10:20:42;99052.94;;;3.40;55.80
46111;BME280;31849;55.992;37.252;2023-02-04T10:25:46;99065.66;;;3.33;54.46
46111;BME280;31849;55.992;37.252;2023-02-04T10:30:49;99073.53;;;3.41;55.30
46111;BME280;31849;55.992;37.252;2023-02-04T10:35:56;99076.16;;;3.44;55.66
46111;BME280;31849;55.992;37.252;2023-02-04T10:41:00;99078.03;;;3.53;55.92
46111;BME280;31849;55.992;37.252;2023-02-04T10:46:03;99085.66;;;3.47;55.15
46111;BME280;31849;55.992;37.252;2023-02-04T10:51:10;99085.53;;;3.41;55.05
46111;BME280;31849;55.992;37.252;2023-02-04T10:56:17;99087.66;;;3.21;55.86
46111;BME280;31849;55.992;37.252;2023-02-04T11:01:25;99092.16;;;3.31;55.89
46111;BME280;31849;55.992;37.252;2023-02-04T11:06:32;99102.75;;;3.45;56.12
46111;BME280;31849;55.992;37.252;2023-02-04T11:11:35;99109.91;;;3.60;55.07
46111;BME280;31849;55.992;37.252;2023-02-04T11:16:46;99113.78;;;3.41;55.79
46111;BME280;31849;55.992;37.252;2023-02-04T11:21:52;99118.25;;;3.49;55.53
46111;BME280;31849;55.992;37.252;2023-02-04T11:27:19;99122.66;;;3.55;55.66
46111;BME280;31849;55.992;37.252;2023-02-04T11:32:30;99129.56;;;3.58;55.89
46111;BME280;31849;55.992;37.252;2023-02-04T11:37:37;99124.91;;;3.40;55.79
46111;BME280;31849;55.992;37.252;2023-02-04T11:42:41;99125.09;;;3.47;55.68
46111;BME280;31849;55.992;37.252;2023-02-04T11:47:45;99137.72;;;3.38;55.52
46111;BME280;31849;55.992;37.252;2023-02-04T11:52:52;99144.63;;;3.41;56.07
46111;BME280;31849;55.992;37.252;2023-02-04T11:57:56;99144.34;;;3.27;55.54
46111;BME280;31849;55.992;37.252;2023-02-04T12:03:01;99144.25;;;3.22;55.30
46111;BME280;31849;55.992;37.252;2023-02-04T12:08:26;99149.34;;;3.21;55.22
46111;BME280;31849;55.992;37.252;2023-02-04T12:13:30;99154.25;;;3.10;55.34
46111;BME280;31849;55.992;37.252;2023-02-04T12:18:34;99157.13;;;2.86;55.96
46111;BME280;31849;55.992;37.252;2023-02-04T12:23:39;99158.19;;;2.95;55.67
46111;BME280;31849;55.992;37.252;2023-02-04T12:28:43;99171.69;;;2.87;56.06
46111;BME280;31849;55.992;37.252;2023-02-04T12:33:47;99179.13;;;2.76;56.25
46111;BME280;31849;55.992;37.252;2023-02-04T12:38:52;99164.19;;;2.59;56.30
46111;BME280;31849;55.992;37.252;2023-02-04T12:43:56;99193.50;;;2.68;56.06
46111;BME280;31849;55.992;37.252;2023-02-04T12:49:02;99197.47;;;2.56;57.13
46111;BME280;31849;55.992;37.252;2023-02-04T12:54:07;99211.91;;;2.51;56.13
46111;BME280;31849;55.992;37.252;2023-02-04T12:59:10;99220.22;;;2.42;56.78
46111;BME280;31849;55.992;37.252;2023-02-04T13:04:14;99220.97;;;2.38;56.71
46111;BME280;31849;55.992;37.252;2023-02-04T13:09:19;99220.19;;;2.41;56.96
46111;BME280;31849;55.992;37.252;2023-02-04T13:14:23;99237.78;;;2.28;56.66
46111;BME280;31849;55.992;37.252;2023-02-04T13:19:26;99221.34;;;2.20;57.12
46111;BME280;31849;55.992;37.252;2023-02-04T13:24:31;99230.03;;;2.25;56.89
46111;BME280;31849;55.992;37.252;2023-02-04T13:29:34;99241.00;;;2.20;57.41
46111;BME280;31849;55.992;37.252;2023-02-04T13:34:38;99247.03;;;2.22;57.14
46111;BME280;31849;55.992;37.252;2023-02-04T13:39:43;99245.50;;;2.28;56.85
46111;BME280;31849;55.992;37.252;2023-02-04T13:44:46;99245.13;;;2.15;57.10
46111;BME280;31849;55.992;37.252;2023-02-04T13:49:50;99258.75;;;2.14;57.71
46111;BME280;31849;55.992;37.252;2023-02-04T13:54:55;99275.88;;;2.13;57.31
46111;BME280;31849;55.992;37.252;2023-02-04T13:59:58;99277.56;;;2.13;56.56
46111;BME280;31849;55.992;37.252;2023-02-04T14:05:02;99272.50;;;1.85;57.72
46111;BME280;31849;55.992;37.252;2023-02-04T14:10:08;99278.25;;;1.78;57.58
46111;BME280;31849;55.992;37.252;2023-02-04T14:15:11;99286.84;;;1.79;57.25
46111;BME280;31849;55.992;37.252;2023-02-04T14:20:15;99291.03;;;1.76;57.39
46111;BME280;31849;55.992;37.252;2023-02-04T14:25:20;99297.19;;;1.82;58.09
46111;BME280;31849;55.992;37.252;2023-02-04T14:30:26;99307.38;;;1.80;57.80
46111;BME280;31849;55.992;37.252;2023-02-04T14:35:30;99313.34;;;1.79;57.68
46111;BME280;31849;55.992;37.252;2023-02-04T14:40:35;99318.22;;;1.71;58.15
46111;BME280;31849;55.992;37.252;2023-02-04T14:45:40;99327.53;;;1.68;57.48
46111;BME280;31849;55.992;37.252;2023-02-04T14:50:43;99325.69;;;1.64;57.65
46111;BME280;31849;55.992;37.252;2023-02-04T14:55:48;99325.47;;;1.56;58.20
46111;BME280;31849;55.992;37.252;2023-02-04T15:00:51;99335.84;;;1.61;58.12
46111;BME280;31849;55.992;37.252;2023-02-04T15:05:55;99348.47;;;1.54;58.42
46111;BME280;31849;55.992;37.252;2023-02-04T15:11:00;99351.75;;;1.50;58.39
46111;BME280;31849;55.992;37.252;2023-02-04T15:16:04;99345.69;;;1.48;58.42
46111;BME280;31849;55.992;37.252;2023-02-04T15:21:08;99357.88;;;1.55;58.60
46111;BME280;31849;55.992;37.252;2023-02-04T15:26:14;99358.78;;;1.56;58.26
46111;BME280;31849;55.992;37.252;2023-02-04T15:31:17;99372.28;;;1.52;57.92
46111;BME280;31849;55.992;37.252;2023-02-04T15:36:21;99376.81;;;1.33;58.21
46111;BME280;31849;55.992;37.252;2023-02-04T15:41:26;99369.16;;;1.35;58.13
46111;BME280;31849;55.992;37.252;2023-02-04T15:46:30;99388.94;;;1.39;58.85
46111;BME280;31849;55.992;37.252;2023-02-04T15:51:33;99392.41;;;1.41;58.52
46111;BME280;31849;55.992;37.252;2023-02-04T15:56:38;99387.47;;;1.46;58.77
46111;BME280;31849;55.992;37.252;2023-02-04T16:01:45;99399.03;;;1.34;58.26
46111;BME280;31849;55.992;37.252;2023-02-04T16:06:48;99409.84;;;1.26;58.62
46111;BME280;31849;55.992;37.252;2023-02-04T16:12:01;99403.78;;;1.22;59.08
46111;BME280;31849;55.992;37.252;2023-02-04T16:17:04;99411.16;;;1.14;58.84
46111;BME280;31849;55.992;37.252;2023-02-04T16:22:10;99423.97;;;1.14;58.90
46111;BME280;31849;55.992;37.252;2023-02-04T16:27:15;99422.59;;;1.24;58.81
46111;BME280;31849;55.992;37.252;2023-02-04T16:32:19;99435.66;;;1.06;58.94
46111;BME280;31849;55.992;37.252;2023-02-04T16:37:23;99425.25;;;1.01;58.97
46111;BME280;31849;55.992;37.252;2023-02-04T16:42:28;99426.47;;;1.13;58.63
46111;BME280;31849;55.992;37.252;2023-02-04T16:47:32;99435.06;;;1.13;59.02
46111;BME280;31849;55.992;37.252;2023-02-04T16:52:36;99443.34;;;1.06;58.52
46111;BME280;31849;55.992;37.252;2023-02-04T16:57:40;99450.84;;;1.01;58.79
46111;BME280;31849;55.992;37.252;2023-02-04T17:02:44;99444.41;;;0.88;58.32
46111;BME280;31849;55.992;37.252;2023-02-04T17:07:47;99455.97;;;1.01;58.43
46111;BME280;31849;55.992;37.252;2023-02-04T17:12:52;99458.16;;;0.91;58.37
46111;BME280;31849;55.992;37.252;2023-02-04T17:17:56;99468.63;;;0.74;58.46
46111;BME280;31849;55.992;37.252;2023-02-04T17:22:59;99470.72;;;0.84;58.10
46111;BME280;31849;55.992;37.252;2023-02-04T17:28:04;99465.69;;;0.87;58.02
46111;BME280;31849;55.992;37.252;2023-02-04T17:33:08;99485.44;;;0.90;57.82
46111;BME280;31849;55.992;37.252;2023-02-04T17:38:12;99478.56;;;0.89;57.94
46111;BME280;31849;55.992;37.252;2023-02-04T17:43:17;99485.47;;;0.92;57.83
46111;BME280;31849;55.992;37.252;2023-02-04T17:48:20;99492.03;;;0.83;57.68
46111;BME280;31849;55.992;37.252;2023-02-04T17:53:24;99500.63;;;0.85;57.55
46111;BME280;31849;55.992;37.252;2023-02-04T17:58:29;99494.47;;;0.80;58.04
46111;BME280;31849;55.992;37.252;2023-02-04T18:03:33;99506.03;;;0.70;57.97
46111;BME280;31849;55.992;37.252;2023-02-04T18:08:38;99520.66;;;0.73;57.36
46111;BME280;31849;55.992;37.252;2023-02-04T18:13:44;99516.50;;;0.77;57.41
46111;BME280;31849;55.992;37.252;2023-02-04T18:18:50;99520.09;;;0.59;57.68
46111;BME280;31849;55.992;37.252;2023-02-04T18:24:01;99518.72;;;0.67;57.83
46111;BME280;31849;55.992;37.252;2023-02-04T18:29:27;99500.25;;;0.52;57.94
46111;BME280;31849;55.992;37.252;2023-02-04T18:34:35;99524.47;;;0.62;57.91
46111;BME280;31849;55.992;37.252;2023-02-04T18:39:39;99533.63;;;0.55;57.67
46111;BME280;31849;55.992;37.252;2023-02-04T18:44:44;99531.13;;;0.57;57.71
46111;BME280;31849;55.992;37.252;2023-02-04T18:49:48;99535.34;;;0.56;58.04
46111;BME280;31849;55.992;37.252;2023-02-04T18:54:53;99536.13;;;0.54;57.69
46111;BME280;31849;55.992;37.252;2023-02-04T19:05:41;99554.72;;;0.49;57.71
46111;BME280;31849;55.992;37.252;2023-02-04T19:10:45;99552.94;;;0.48;57.82
46111;BME280;31849;55.992;37.252;2023-02-04T19:15:59;99559.72;;;0.46;57.90
46111;BME280;31849;55.992;37.252;2023-02-04T19:21:14;99558.81;;;0.46;57.79
46111;BME280;31849;55.992;37.252;2023-02-04T19:26:26;99569.03;;;0.46;57.58
46111;BME280;31849;55.992;37.252;2023-02-04T19:31:32;99563.81;;;0.43;57.84
46111;BME280;31849;55.992;37.252;2023-02-04T19:36:37;99562.59;;;0.33;57.64
46111;BME280;31849;55.992;37.252;2023-02-04T19:41:45;99579.72;;;0.35;57.82
46111;BME280;31849;55.992;37.252;2023-02-04T19:46:52;99582.16;;;0.32;58.12
46111;BME280;31849;55.992;37.252;2023-02-04T19:51:57;99581.97;;;0.28;58.29
46111;BME280;31849;55.992;37.252;2023-02-04T19:57:01;99581.00;;;0.24;58.13
46111;BME280;31849;55.992;37.252;2023-02-04T20:02:31;99598.59;;;0.16;58.07
46111;BME280;31849;55.992;37.252;2023-02-04T20:07:36;99596.22;;;0.21;58.07
46111;BME280;31849;55.992;37.252;2023-02-04T20:12:40;99601.38;;;0.23;58.23
46111;BME280;31849;55.992;37.252;2023-02-04T20:17:46;99599.69;;;0.23;58.52
46111;BME280;31849;55.992;37.252;2023-02-04T20:22:51;99619.34;;;0.24;58.08
46111;BME280;31849;55.992;37.252;2023-02-04T20:27:58;99613.50;;;0.27;57.95
46111;BME280;31849;55.992;37.252;2023-02-04T20:33:31;99618.22;;;0.17;58.30
46111;BME280;31849;55.992;37.252;2023-02-04T20:38:35;99611.66;;;0.03;58.48
46111;BME280;31849;55.992;37.252;2023-02-04T20:43:39;99619.88;;;-0.04;58.72
46111;BME280;31849;55.992;37.252;2023-02-04T20:48:44;99620.69;;;-0.05;58.39
46111;BME280;31849;55.992;37.252;2023-02-04T20:53:50;99619.88;;;-0.04;58.93
46111;BME280;31849;55.992;37.252;2023-02-04T20:58:56;99615.31;;;-0.11;58.46
46111;BME280;31849;55.992;37.252;2023-02-04T21:04:15;99636.56;;;-0.12;58.51
46111;BME280;31849;55.992;37.252;2023-02-04T21:09:23;99630.56;;;-0.13;58.67
46111;BME280;31849;55.992;37.252;2023-02-04T21:14:27;99646.72;;;-0.14;58.78
46111;BME280;31849;55.992;37.252;2023-02-04T21:19:32;99643.81;;;-0.22;58.54
46111;BME280;31849;55.992;37.252;2023-02-04T21:24:36;99654.66;;;-0.27;58.32
46111;BME280;31849;55.992;37.252;2023-02-04T21:29:39;99662.84;;;-0.15;58.42
46111;BME280;31849;55.992;37.252;2023-02-04T21:34:44;99658.28;;;-0.03;58.32
46111;BME280;31849;55.992;37.252;2023-02-04T21:39:48;99672.25;;;0.06;57.94
46111;BME280;31849;55.992;37.252;2023-02-04T21:44:51;99684.56;;;0.14;57.62
46111;BME280;31849;55.992;37.252;2023-02-04T21:49:56;99686.56;;;0.22;57.62
46111;BME280;31849;55.992;37.252;2023-02-04T21:55:00;99687.19;;;0.16;57.61
46111;BME280;31849;55.992;37.252;2023-02-04T22:00:07;99691.69;;;0.22;57.28
46111;BME280;31849;55.992;37.252;2023-02-04T22:05:12;99699.44;;;0.23;57.55
46111;BME280;31849;55.992;37.252;2023-02-04T22:10:16;99701.19;;;0.24;57.22
46111;BME280;31849;55.992;37.252;2023-02-04T22:15:20;99706.44;;;0.08;56.99
46111;BME280;31849;55.992;37.252;2023-02-04T22:20:26;99705.84;;;0.13;56.96
46111;BME280;31849;55.992;37.252;2023-02-04T22:25:31;99710.00;;;0.11;56.77
46111;BME280;31849;55.992;37.252;2023-02-04T22:30:35;99714.00;;;0.05;56.81
46111;BME280;31849;55.992;37.252;2023-02-04T22:35:40;99720.38;;;-0.05;56.95
46111;BME280;31849;55.992;37.252;2023-02-04T22:40:43;99719.13;;;-0.13;57.03
46111;BME280;31849;55.992;37.252;2023-02-04T22:45:49;99725.47;;;-0.05;56.88
46111;BME280;31849;55.992;37.252;2023-02-04T22:50:53;99729.34;;;-0.13;56.86
46111;BME280;31849;55.992;37.252;2023-02-04T22:55:57;99730.78;;;-0.20;57.01
46111;BME280;31849;55.992;37.252;2023-02-04T23:01:01;99738.59;;;-0.17;56.87
46111;BME280;31849;55.992;37.252;2023-02-04T23:06:06;99743.84;;;-0.14;57.23
46111;BME280;31849;55.992;37.252;2023-02-04T23:11:09;99751.44;;;-0.15;57.24
46111;BME280;31849;55.992;37.252;2023-02-04T23:16:14;99755.81;;;-0.13;57.39
46111;BME280;31849;55.992;37.252;2023-02-04T23:21:19;99762.13;;;-0.05;57.03
46111;BME280;31849;55.992;37.252;2023-02-04T23:26:23;99769.81;;;-0.05;56.47
46111;BME280;31849;55.992;37.252;2023-02-04T23:31:27;99763.09;;;-0.03;56.67
46111;BME280;31849;55.992;37.252;2023-02-04T23:36:34;99763.97;;;-0.02;56.58
46111;BME280;31849;55.992;37.252;2023-02-04T23:41:37;99768.38;;;-0.17;56.60
46111;BME280;31849;55.992;37.252;2023-02-04T23:46:41;99770.59;;;-0.25;56.90
46111;BME280;31849;55.992;37.252;2023-02-04T23:51:46;99776.66;;;-0.23;57.13
46111;BME280;31849;55.992;37.252;2023-02-04T23:56:51;99781.25;;;-0.16;56.38
